Terminal Aerodrome Forecast
Issued by NWS Melbourne, FL

Home | Current Version | Previous Version | Text Only | Print | Product List | Glossary On
Versions: 1 2 3 4 5 6 7 8 9 10 11 12 13 14 15 16 17 18 19 20 21 22 23 24 25
221
FTUS42 KMLB 132324
TAFMCO
TAF
KMCO 132324Z 1400/1424 03010KT P6SM FEW015
     FM140300 36008KT P6SM SKC
     FM141400 05010KT P6SM SCT035
     FM141700 08011KT P6SM BKN035=

USA.gov is the U.S. government's official web portal to all federal, state and local government web resources and services.